Time;durP1;ratioP1;P1;durP2;ratioP2;P2;SDS_P1;SDS_P2;PMS_P1;PMS_P2;Temp;Humidity;BMP_temperature;BMP_pressure;BME280_temperature;BME280_humidity;BME280_pressure;Samples;Min_cycle;Max_cycle;Signal;HPM_P1;HPM_P2
2022/12/14 00:01:18;;;;;;;41.10;16.92;;;;;;;-4.08;100.00;98438.47;4397055;32;20034;-72
2022/12/14 00:03:45;;;;;;;47.90;19.20;;;;;;;-3.90;100.00;98453.19;4397597;32;20072;-73
2022/12/14 00:06:17;;;;;;;21.75;7.28;;;;;;;-4.07;100.00;98440.13;4398046;32;20351;-73
2022/12/14 00:08:44;;;;;;;38.78;15.45;;;;;;;-4.68;100.00;98459.97;4397994;32;20039;-73
2022/12/14 00:11:13;;;;;;;36.55;14.70;;;;;;;-4.46;100.00;98455.84;4402679;32;20059;-73
2022/12/14 00:13:40;;;;;;;33.75;13.73;;;;;;;-4.39;100.00;98447.13;4403198;32;20078;-73
2022/12/14 00:16:12;;;;;;;48.60;16.75;;;;;;;-4.34;100.00;98448.41;4407313;32;20054;-73
2022/12/14 00:18:39;;;;;;;46.45;15.02;;;;;;;-3.93;100.00;98456.16;4408441;32;20064;-73
2022/12/14 00:21:08;;;;;;;40.53;16.25;;;;;;;-4.34;100.00;98458.91;4404650;32;20042;-73
2022/12/14 00:23:35;;;;;;;29.70;13.82;;;;;;;-4.04;100.00;98460.81;4438680;32;20953;-74
2022/12/14 00:26:11;;;;;;;33.25;14.38;;;;;;;-4.09;100.00;98443.91;4432135;32;20077;-74
2022/12/14 00:28:37;;;;;;;43.55;13.95;;;;;;;-3.77;100.00;98458.72;4444976;32;20037;-73
2022/12/14 00:31:05;;;;;;;31.12;13.20;;;;;;;-4.12;100.00;98468.72;4440693;32;20056;-73
2022/12/14 00:33:32;;;;;;;39.47;15.30;;;;;;;-4.42;100.00;98426.41;4436704;32;20074;-73
2022/12/14 00:35:58;;;;;;;28.62;13.40;;;;;;;-3.87;100.00;98466.00;4435851;32;20035;-72
2022/12/14 00:38:25;;;;;;;44.22;14.98;;;;;;;-4.12;100.00;98458.19;4432334;32;20064;-73
2022/12/14 00:40:53;;;;;;;40.95;17.35;;;;;;;-4.32;100.00;98456.94;4430949;32;20078;-73
2022/12/14 00:43:20;;;;;;;38.00;16.33;;;;;;;-4.41;100.00;98417.53;4431637;32;20375;-73
2022/12/14 00:45:48;;;;;;;34.05;15.13;;;;;;;-4.49;100.00;98462.22;4432606;32;20038;-73
2022/12/14 00:48:16;;;;;;;38.08;14.87;;;;;;;-4.62;100.00;98456.69;4441777;32;20384;-73
2022/12/14 00:50:47;;;;;;;34.78;13.40;;;;;;;-4.65;100.00;98446.50;4445394;32;20099;-73
2022/12/14 00:53:15;;;;;;;36.97;14.57;;;;;;;-4.55;100.00;98447.13;4446733;32;20045;-73
2022/12/14 00:55:43;;;;;;;29.45;13.23;;;;;;;-4.23;100.00;98443.63;4447297;32;20042;-73
2022/12/14 00:58:12;;;;;;;33.05;15.77;;;;;;;-4.33;100.00;98445.59;4445953;32;20041;-73
2022/12/14 03:01:41;;;;;;;38.92;16.10;;;;;;;-6.37;100.00;98413.75;4586349;27;20053;-73
2022/12/14 03:04:08;;;;;;;51.37;15.70;;;;;;;-6.58;100.00;98412.34;4295265;33;20405;-73
2022/12/14 03:06:34;;;;;;;37.35;13.75;;;;;;;-6.77;100.00;98407.31;4295861;33;20053;-72
2022/12/14 03:09:00;;;;;;;34.03;13.25;;;;;;;-6.83;100.00;98371.28;4296068;33;20041;-73
2022/12/14 03:11:41;;;;;;;36.65;12.50;;;;;;;-6.19;100.00;98420.72;4292403;33;20044;-73
2022/12/14 03:14:16;;;;;;;29.83;12.77;;;;;;;-6.10;100.00;98419.78;4295718;33;20067;-74
2022/12/14 03:16:47;;;;;;;20.83;8.75;;;;;;;-5.92;100.00;98417.84;4265582;33;20038;-73
2022/12/14 03:19:22;;;;;;;36.47;13.27;;;;;;;-6.24;100.00;98408.94;4263288;33;20081;-73
2022/12/14 03:21:54;;;;;;;34.53;13.18;;;;;;;-6.05;100.00;98412.25;4263628;33;20045;-73
2022/12/14 03:24:28;;;;;;;37.60;14.73;;;;;;;-6.24;100.00;98364.38;4263890;33;20055;-73
2022/12/14 03:27:06;;;;;;;44.80;18.42;;;;;;;-6.01;100.00;98421.47;4263249;33;20071;-73
2022/12/14 03:29:44;;;;;;;37.65;14.20;;;;;;;-6.36;100.00;98373.50;4264957;33;20055;-74
2022/12/14 03:32:25;;;;;;;27.20;12.23;;;;;;;-6.14;100.00;98413.19;4262825;33;20060;-73
2022/12/14 03:35:02;;;;;;;26.70;10.77;;;;;;;-6.16;100.00;98402.88;4265023;33;20030;-73
2022/12/14 03:37:59;;;;;;;42.85;14.05;;;;;;;-6.65;100.00;98406.09;4265382;33;20106;-73
2022/12/14 03:40:33;;;;;;;38.38;17.17;;;;;;;-6.66;100.00;98362.53;4243803;33;20399;-73
2022/12/14 03:43:37;;;;;;;39.72;13.77;;;;;;;-6.30;100.00;98409.56;4265986;33;20059;-73
2022/12/14 03:46:57;;;;;;;39.33;13.80;;;;;;;-6.27;100.00;98403.16;4235253;33;20046;-73
2022/12/14 03:49:44;;;;;;;37.78;14.75;;;;;;;-6.08;100.00;98408.16;4241920;33;20078;-74
2022/12/14 03:52:57;;;;;;;32.08;11.15;;;;;;;-6.01;100.00;98403.09;4262958;33;20053;-73
2022/12/14 03:55:31;;;;;;;30.33;12.23;;;;;;;-6.05;100.00;98396.53;4227854;33;20034;-72
2022/12/14 03:58:16;;;;;;;29.08;14.90;;;;;;;-6.07;100.00;98399.31;4250277;33;20085;-74
2022/12/14 04:01:04;;;;;;;32.30;11.35;;;;;;;-6.26;100.00;98400.37;4255132;33;20054;-73
2022/12/14 04:03:36;;;;;;;22.73;9.57;;;;;;;-6.42;100.00;98400.31;4264810;33;20104;-73
2022/12/14 04:06:22;;;;;;;36.00;12.80;;;;;;;-7.10;100.00;98359.97;4264476;33;20072;-73
2022/12/14 04:09:18;;;;;;;24.73;8.57;;;;;;;-6.78;100.00;98389.97;4263590;33;20029;-74
2022/12/14 04:20:25;;;;;;;23.85;10.30;;;;;;;-6.47;100.00;98366.72;4297231;33;20033;-73
2022/12/14 04:23:11;;;;;;;35.08;12.85;;;;;;;-6.18;100.00;98385.69;4296310;33;20466;-73
2022/12/14 04:26:03;;;;;;;37.47;12.43;;;;;;;-6.32;100.00;98338.13;4296254;33;20033;-73
2022/12/14 04:31:30;;;;;;;25.77;11.85;;;;;;;-6.20;100.00;98375.34;4296208;33;20439;-73
2022/12/14 04:34:01;;;;;;;29.50;11.55;;;;;;;-6.30;100.00;98362.37;4294367;33;20510;-73
2022/12/14 04:36:47;;;;;;;24.33;11.43;;;;;;;-6.20;100.00;98362.25;4296163;33;20387;-73
2022/12/14 04:39:23;;;;;;;27.08;14.63;;;;;;;-6.25;100.00;98359.28;4296143;33;20145;-74
2022/12/14 04:41:52;;;;;;;32.28;13.40;;;;;;;-6.28;100.00;98370.09;4278126;33;20163;-73
2022/12/14 04:44:29;;;;;;;27.20;12.40;;;;;;;-6.35;100.00;98374.31;4270923;33;20045;-73
2022/12/14 04:46:59;;;;;;;28.67;12.77;;;;;;;-6.26;100.00;98374.19;4280790;33;20359;-74
2022/12/14 04:49:35;;;;;;;33.03;11.90;;;;;;;-6.32;100.00;98364.31;4279050;33;20063;-73
2022/12/14 04:52:20;;;;;;;30.48;13.90;;;;;;;-6.32;100.00;98321.59;4267998;33;20124;-74
2022/12/14 04:54:55;;;;;;;30.00;12.80;;;;;;;-6.33;100.00;98336.50;4266816;33;20364;-73
2022/12/14 04:57:32;;;;;;;33.50;14.40;;;;;;;-6.30;100.00;98328.31;4271818;33;20118;-73
2022/12/14 05:00:00;;;;;;;33.95;12.88;;;;;;;-6.45;100.00;98319.41;4274090;33;20198;-73
2022/12/14 05:02:56;;;;;;;24.58;11.93;;;;;;;-6.43;100.00;98356.75;4266873;33;20063;-74
2022/12/14 05:05:57;;;;;;;28.58;12.63;;;;;;;-6.13;100.00;98362.44;4266828;33;20075;-74
2022/12/14 05:08:58;;;;;;;25.85;11.85;;;;;;;-6.24;100.00;98322.44;4265370;33;20063;-74
2022/12/14 05:11:29;;;;;;;40.03;14.13;;;;;;;-5.80;100.00;98354.63;4253070;33;20030;-74
2022/12/14 05:13:56;;;;;;;38.65;14.60;;;;;;;-6.19;100.00;98305.41;4259050;33;20050;-72
2022/12/14 05:16:23;;;;;;;38.65;16.10;;;;;;;-6.54;100.00;98329.06;4264316;33;20054;-73
2022/12/14 05:18:50;;;;;;;39.45;16.00;;;;;;;-6.69;100.00;98349.75;4252565;33;20046;-75
2022/12/14 05:24:03;;;;;;;39.92;14.52;;;;;;;-6.68;100.00;98354.03;4266298;33;20482;-73
2022/12/14 05:26:36;;;;;;;41.63;15.88;;;;;;;-7.13;100.00;98292.28;4266164;33;20400;-73
2022/12/14 05:29:02;;;;;;;40.10;15.15;;;;;;;-6.86;100.00;98342.78;4265153;33;20085;-74
2022/12/14 05:31:29;;;;;;;45.10;15.25;;;;;;;-6.89;100.00;98351.78;4266352;33;20220;-74
2022/12/14 05:33:56;;;;;;;40.38;15.75;;;;;;;-6.99;100.00;98310.03;4283693;33;20047;-73
2022/12/14 05:36:22;;;;;;;38.10;14.40;;;;;;;-7.23;100.00;98349.13;4297209;33;20154;-74
2022/12/14 05:38:48;;;;;;;46.83;17.15;;;;;;;-7.16;100.00;98345.75;4296518;33;20066;-73
2022/12/14 05:41:15;;;;;;;42.70;16.70;;;;;;;-6.96;100.00;98346.34;4296543;33;20045;-73
2022/12/14 05:43:41;;;;;;;42.28;16.27;;;;;;;-7.01;100.00;98337.31;4295401;33;20229;-73
2022/12/14 05:46:10;;;;;;;36.22;15.73;;;;;;;-7.05;100.00;98342.06;4295233;33;20448;-73
2022/12/14 05:48:37;;;;;;;32.38;16.08;;;;;;;-7.12;100.00;98328.75;4297031;33;20188;-74
2022/12/14 05:51:08;;;;;;;34.50;13.40;;;;;;;-7.28;100.00;98293.81;4296821;33;20070;-73
2022/12/14 05:53:35;;;;;;;30.45;12.48;;;;;;;-7.11;100.00;98316.50;4297121;33;20067;-73
2022/12/14 05:56:03;;;;;;;47.60;17.37;;;;;;;-7.25;100.00;98335.38;4295558;33;20093;-72
2022/12/14 05:58:29;;;;;;;40.05;14.73;;;;;;;-7.75;100.00;98282.69;4278631;33;20046;-74
2022/12/14 06:01:00;;;;;;;39.63;15.65;;;;;;;-7.44;100.00;98329.34;4279707;33;20072;-73
2022/12/14 06:03:27;;;;;;;51.05;18.08;;;;;;;-7.42;100.00;98321.34;4279906;33;20049;-74
2022/12/14 06:05:54;;;;;;;40.90;15.95;;;;;;;-7.75;100.00;98329.75;4265781;33;20403;-73
2022/12/14 06:08:20;;;;;;;32.75;14.38;;;;;;;-7.71;100.00;98331.06;4263598;33;20042;-73
2022/12/14 06:10:47;;;;;;;37.78;14.63;;;;;;;-7.72;100.00;98339.91;4265374;33;20105;-74
2022/12/14 06:13:13;;;;;;;39.92;16.37;;;;;;;-7.92;100.00;98348.88;4265258;33;20489;-73
2022/12/14 06:15:40;;;;;;;34.58;14.60;;;;;;;-7.78;100.00;98319.59;4265996;33;20063;-74
2022/12/14 06:18:06;;;;;;;36.38;16.58;;;;;;;-8.12;100.00;98294.16;4264416;33;20089;-73
2022/12/14 06:20:32;;;;;;;42.58;17.23;;;;;;;-7.87;100.00;98339.59;4265298;33;20085;-73
2022/12/14 06:22:59;;;;;;;49.67;17.95;;;;;;;-7.76;100.00;98328.09;4251316;33;20095;-73
2022/12/14 06:25:25;;;;;;;46.17;15.57;;;;;;;-8.24;100.00;98309.19;4251885;33;20173;-72
2022/12/14 06:27:53;;;;;;;49.90;19.67;;;;;;;-7.92;100.00;98341.03;4263671;33;21050;-73
2022/12/14 06:30:19;;;;;;;45.88;19.50;;;;;;;-8.24;100.00;98340.53;4250626;33;20056;-73
2022/12/14 06:32:46;;;;;;;44.33;19.55;;;;;;;-8.16;100.00;98341.59;4250986;33;20081;-74
2022/12/14 06:35:12;;;;;;;58.90;20.83;;;;;;;-8.17;100.00;98338.16;4251625;33;20103;-74
2022/12/14 06:37:39;;;;;;;49.33;17.85;;;;;;;-8.27;100.00;98340.00;4251000;33;20080;-73
2022/12/14 06:40:06;;;;;;;62.03;19.40;;;;;;;-8.46;100.00;98331.34;4251287;33;20201;-72
2022/12/14 06:42:33;;;;;;;56.75;24.12;;;;;;;-8.32;100.00;98337.03;4234623;33;20444;-72
2022/12/14 06:44:59;;;;;;;60.67;22.02;;;;;;;-8.60;100.00;98334.44;4236928;33;20076;-73
2022/12/14 06:47:27;;;;;;;40.83;18.37;;;;;;;-8.47;100.00;98345.38;4235922;33;20051;-73
2022/12/14 06:49:53;;;;;;;61.78;23.00;;;;;;;-8.55;100.00;98342.69;4237110;33;20057;-74
2022/12/14 06:52:19;;;;;;;53.58;23.12;;;;;;;-8.84;100.00;98286.22;4235418;33;20052;-73
2022/12/14 06:54:53;;;;;;;51.88;23.38;;;;;;;-8.72;100.00;98336.44;4236733;33;20129;-73
2022/12/14 06:57:19;;;;;;;76.47;28.02;;;;;;;-8.67;100.00;98333.38;4236880;33;20046;-75
2022/12/14 06:59:46;;;;;;;52.05;23.95;;;;;;;-8.50;100.00;98345.66;4225180;33;20060;-75
2022/12/14 07:02:12;;;;;;;57.00;23.02;;;;;;;-8.59;100.00;98309.97;4206697;34;20091;-75
2022/12/14 07:04:40;;;;;;;56.05;23.50;;;;;;;-8.71;100.00;98326.78;4207308;34;20043;-75
2022/12/14 07:07:07;;;;;;;62.78;24.50;;;;;;;-8.68;100.00;98339.56;4208532;34;20492;-75
2022/12/14 07:09:33;;;;;;;61.75;24.63;;;;;;;-8.83;100.00;98345.25;4208990;34;20059;-74
2022/12/14 07:12:00;;;;;;;75.85;30.08;;;;;;;-9.08;100.00;98319.78;4207763;34;20034;-76
2022/12/14 07:14:26;;;;;;;68.07;26.62;;;;;;;-9.24;100.00;98323.81;4229710;33;20043;-75
2022/12/14 07:16:53;;;;;;;64.45;23.85;;;;;;;-9.08;100.00;98302.34;4236897;33;20111;-77
2022/12/14 07:19:25;;;;;;;68.53;27.58;;;;;;;-8.99;100.00;98329.38;4235855;33;20062;-77
2022/12/14 07:21:52;;;;;;;79.82;25.98;;;;;;;-9.05;100.00;98319.50;4237034;33;20098;-76
2022/12/14 07:24:19;;;;;;;60.67;22.83;;;;;;;-9.21;100.00;98294.84;4193058;34;20065;-75
2022/12/14 07:26:45;;;;;;;58.05;24.08;;;;;;;-9.26;100.00;98270.97;4194735;34;20060;-77
2022/12/14 07:29:13;;;;;;;77.97;27.35;;;;;;;-9.14;100.00;98321.19;4194828;34;20039;-75
2022/12/14 07:31:40;;;;;;;58.72;23.70;;;;;;;-8.86;100.00;98324.66;4206188;34;20101;-76
2022/12/14 07:34:06;;;;;;;48.70;20.20;;;;;;;-8.96;100.00;98321.28;4243101;33;20170;-77
2022/12/14 07:36:33;;;;;;;41.50;20.62;;;;;;;-8.90;100.00;98323.31;4221189;34;20104;-78
2022/12/14 07:38:59;;;;;;;50.70;21.02;;;;;;;-8.66;100.00;98329.78;4219713;33;20200;-76
2022/12/14 07:41:29;;;;;;;38.72;16.83;;;;;;;-8.91;100.00;98324.28;4225781;33;20046;-76
2022/12/14 07:43:58;;;;;;;44.25;20.12;;;;;;;-8.51;100.00;98317.91;4221602;34;20065;-76
2022/12/14 07:46:27;;;;;;;50.47;18.55;;;;;;;-8.53;100.00;98324.25;4204184;34;20078;-76
2022/12/14 07:48:55;;;;;;;48.65;20.83;;;;;;;-8.54;100.00;98312.97;4194160;34;20061;-75
2022/12/14 07:51:28;;;;;;;38.38;18.23;;;;;;;-8.38;100.00;98306.28;4194499;34;20044;-75
2022/12/14 07:53:55;;;;;;;45.65;18.62;;;;;;;-8.49;100.00;98278.59;4210242;34;20069;-75
2022/12/14 07:56:24;;;;;;;49.92;21.00;;;;;;;-8.38;100.00;98316.72;4232374;33;20072;-76
2022/12/14 07:58:51;;;;;;;44.45;16.05;;;;;;;-8.19;100.00;98316.59;4210231;34;20118;-75
2022/12/14 08:01:23;;;;;;;51.97;20.85;;;;;;;-8.72;100.00;98267.75;4180458;34;20159;-75
2022/12/14 08:03:51;;;;;;;;;;;;;;;-8.28;100.00;98317.47;4178471;34;20066;-76
2022/12/14 08:06:20;;;;;;;52.62;20.75;;;;;;;-8.05;100.00;98318.69;4174842;34;19951;-74
2022/12/14 08:08:47;;;;;;;51.03;21.17;;;;;;;-8.26;100.00;98310.31;4168119;34;20441;-75
2022/12/14 08:11:15;;;;;;;45.92;21.52;;;;;;;-8.33;100.00;98304.03;4166675;34;20453;-75
2022/12/14 08:13:42;;;;;;;49.95;18.62;;;;;;;-8.25;100.00;98302.34;4164801;34;20070;-75
2022/12/14 08:16:14;;;;;;;49.05;21.62;;;;;;;-8.16;100.00;98311.06;4154265;34;20297;-74
2022/12/14 08:18:42;;;;;;;33.67;13.93;;;;;;;-8.19;100.00;98308.75;4152933;34;20063;-74
2022/12/14 08:21:11;;;;;;;53.08;20.50;;;;;;;-8.09;100.00;98296.47;4165767;34;20068;-76
2022/12/14 08:23:37;;;;;;;49.38;19.02;;;;;;;-7.76;100.00;98301.16;4166643;34;20040;-76
2022/12/14 08:26:05;;;;;;;34.83;17.40;;;;;;;-7.91;100.00;98287.81;4167602;34;20118;-76
2022/12/14 08:28:32;;;;;;;26.50;12.77;;;;;;;-7.83;100.00;98284.41;4167443;34;20215;-76
2022/12/14 08:31:07;;;;;;;51.17;20.20;;;;;;;-7.61;100.00;98304.03;4151357;34;20470;-77
2022/12/14 08:33:36;;;;;;;39.58;17.85;;;;;;;-7.69;100.00;98255.13;4182179;34;20470;-76
2022/12/14 08:36:21;;;;;;;35.30;15.63;;;;;;;-7.76;100.00;98249.69;4197003;34;20087;-77
2022/12/14 08:38:58;;;;;;;39.58;18.02;;;;;;;-7.45;100.00;98251.88;4210493;34;20032;-77
2022/12/14 08:41:27;;;;;;;31.52;13.75;;;;;;;-7.52;100.00;98248.22;4221573;33;20069;-75
2022/12/14 08:44:09;;;;;;;41.60;18.48;;;;;;;-7.47;100.00;98279.94;4218923;34;20057;-76
2022/12/14 08:46:38;;;;;;;51.83;23.75;;;;;;;-7.35;100.00;98288.38;4206436;34;20034;-77
2022/12/14 08:49:05;;;;;;;43.78;17.80;;;;;;;-7.60;100.00;98290.00;4202216;34;20060;-76
2022/12/14 08:51:31;;;;;;;38.50;17.40;;;;;;;-7.73;100.00;98280.75;4215068;33;20151;-76
2022/12/14 08:53:59;;;;;;;33.58;15.32;;;;;;;-7.67;100.00;98280.16;4214869;33;20086;-76
2022/12/14 08:56:27;;;;;;;36.08;15.23;;;;;;;-7.48;100.00;98273.09;4212682;34;20051;-78
2022/12/14 08:58:55;;;;;;;33.00;14.15;;;;;;;-7.15;100.00;98283.75;4193592;34;20025;-76
2022/12/14 09:01:28;;;;;;;37.25;15.43;;;;;;;-7.41;100.00;98274.12;4164571;34;20045;-84
2022/12/14 09:03:55;;;;;;;36.80;12.68;;;;;;;-7.11;100.00;98269.41;4169859;34;20338;-74
2022/12/14 09:06:26;;;;;;;43.45;17.02;;;;;;;-7.25;100.00;98268.16;4183706;34;20391;-78
2022/12/14 09:08:54;;;;;;;49.42;20.75;;;;;;;-7.18;100.00;98221.25;4195172;34;20050;-77
2022/12/14 09:11:21;;;;;;;45.25;17.85;;;;;;;-7.09;100.00;98258.78;4209663;33;20043;-77
2022/12/14 09:13:51;;;;;;;46.60;15.57;;;;;;;-7.26;100.00;98219.41;4238502;33;20042;-76
2022/12/14 09:16:20;;;;;;;44.75;16.85;;;;;;;-7.10;100.00;98212.63;4238986;33;20050;-76
2022/12/14 09:18:48;;;;;;;54.33;23.67;;;;;;;-6.91;100.00;98254.25;4237621;33;20053;-76
2022/12/14 09:21:16;;;;;;;39.53;17.52;;;;;;;-6.72;100.00;98250.56;4212917;33;20104;-77
2022/12/14 09:23:44;;;;;;;55.90;22.90;;;;;;;-6.93;100.00;98243.13;4206975;34;20086;-77
2022/12/14 09:26:16;;;;;;;62.65;26.87;;;;;;;-7.18;100.00;98247.44;4210457;34;20077;-76
2022/12/14 09:28:49;;;;;;;51.80;22.52;;;;;;;-7.22;100.00;98246.13;4209869;34;20453;-77
2022/12/14 09:31:17;;;;;;;54.50;21.48;;;;;;;-6.98;100.00;98246.22;4237106;33;20423;-76
2022/12/14 09:33:44;;;;;;;47.38;19.15;;;;;;;-7.16;100.00;98237.66;4250987;33;20042;-80
2022/12/14 09:36:36;;;;;;;42.60;15.68;;;;;;;-7.28;100.00;98210.09;4237751;33;20459;-76
2022/12/14 09:39:15;;;;;;;44.95;17.70;;;;;;;-7.07;100.00;98244.53;4208642;34;20091;-77
2022/12/14 09:41:43;;;;;;;54.17;20.33;;;;;;;-7.12;100.00;98236.34;4201535;34;20056;-77
2022/12/14 09:44:19;;;;;;;54.83;23.62;;;;;;;-6.99;100.00;98231.50;4183042;34;20044;-76
2022/12/14 09:46:51;;;;;;;51.90;20.35;;;;;;;-6.95;100.00;98232.81;4199096;34;20151;-77
2022/12/14 09:49:26;;;;;;;37.63;14.23;;;;;;;-7.05;100.00;98220.84;4182062;34;20459;-75
2022/12/14 09:51:55;;;;;;;37.80;15.95;;;;;;;-6.86;100.00;98225.00;4173152;34;20212;-76
2022/12/14 09:54:35;;;;;;;37.00;14.65;;;;;;;-7.31;100.00;98178.06;4155614;34;20093;-77
2022/12/14 09:57:12;;;;;;;47.72;21.50;;;;;;;-6.84;100.00;98217.81;4171621;34;20167;-76
2022/12/14 09:59:39;;;;;;;40.90;20.55;;;;;;;-7.00;100.00;98182.75;4152529;34;20132;-75
2022/12/14 10:02:27;;;;;;;45.65;17.17;;;;;;;-6.91;100.00;98216.81;4150678;34;20116;-77
2022/12/14 10:05:35;;;;;;;57.53;21.17;;;;;;;-6.96;100.00;98178.03;4147088;34;20067;-76
2022/12/14 10:08:04;;;;;;;53.38;22.20;;;;;;;-7.07;100.00;98201.84;4155205;34;20425;-79
2022/12/14 10:10:42;;;;;;;50.95;19.83;;;;;;;-7.32;100.00;98186.87;4161254;34;20179;-74
2022/12/14 10:13:18;;;;;;;40.22;17.67;;;;;;;-6.84;100.00;98212.59;4166677;34;20044;-74
2022/12/14 10:15:53;;;;;;;53.58;20.20;;;;;;;-6.95;100.00;98175.25;4167973;34;20061;-75
2022/12/14 10:18:35;;;;;;;43.90;18.90;;;;;;;-6.86;100.00;98194.44;4177939;34;20132;-74
2022/12/14 10:21:23;;;;;;;28.70;12.37;;;;;;;-7.02;100.00;98200.41;4202517;34;20069;-74
2022/12/14 10:23:55;;;;;;;45.12;16.92;;;;;;;-7.07;100.00;98192.19;4209807;34;20031;-74
2022/12/14 10:26:40;;;;;;;51.88;18.98;;;;;;;-6.99;100.00;98192.25;4230939;33;20120;-74
2022/12/14 10:29:13;;;;;;;64.68;25.33;;;;;;;-6.96;100.00;98186.69;4232758;33;20080;-74
2022/12/14 10:31:50;;;;;;;57.90;21.65;;;;;;;-7.02;100.00;98182.09;4233959;33;20477;-74
2022/12/14 10:34:21;;;;;;;48.42;20.70;;;;;;;-6.88;100.00;98182.47;4237155;33;20064;-74
2022/12/14 10:37:24;;;;;;;65.22;25.58;;;;;;;-6.65;100.00;98159.94;4199975;34;20098;-73
2022/12/14 10:40:09;;;;;;;49.17;20.55;;;;;;;-6.63;100.00;98163.22;4231127;33;20046;-75
2022/12/14 10:42:47;;;;;;;52.25;18.45;;;;;;;-6.72;100.00;98168.59;4205224;34;20065;-73
2022/12/14 10:45:16;;;;;;;62.62;24.90;;;;;;;-6.84;100.00;98113.13;4202819;34;20675;-74
2022/12/14 10:47:51;;;;;;;56.25;19.02;;;;;;;-6.82;100.00;98158.28;4203685;34;20135;-74
2022/12/14 10:50:41;;;;;;;40.45;18.25;;;;;;;-6.47;100.00;98154.56;4217059;33;20060;-74
2022/12/14 10:53:16;;;;;;;64.50;25.20;;;;;;;-7.28;100.00;98114.12;4212397;33;20043;-75
2022/12/14 10:55:45;;;;;;;52.88;21.58;;;;;;;-6.78;100.00;98101.97;4321657;28;20156;-74
2022/12/14 10:58:13;;;;;;;53.40;20.60;;;;;;;-6.61;100.00;98139.47;4195103;34;20776;-75
2022/12/14 11:00:42;;;;;;;50.70;18.65;;;;;;;-6.55;100.00;98140.66;4203908;34;20189;-75
2022/12/14 11:03:23;;;;;;;57.05;26.17;;;;;;;-6.73;100.00;98130.28;4198831;34;20046;-75
2022/12/14 11:06:18;;;;;;;53.87;19.55;;;;;;;-6.27;100.00;98131.50;4199561;34;20069;-75
2022/12/14 11:09:07;;;;;;;62.40;22.98;;;;;;;-6.37;100.00;98132.63;4216074;34;20050;-74
2022/12/14 11:11:45;;;;;;;41.03;17.17;;;;;;;-6.46;100.00;98121.31;4230583;34;20098;-74
2022/12/14 11:14:32;;;;;;;61.13;20.02;;;;;;;-6.64;100.00;98062.06;4229086;34;20101;-75
2022/12/14 11:17:46;;;;;;;38.95;16.77;;;;;;;-5.91;100.00;98115.34;4217443;34;20420;-75
2022/12/14 11:20:31;;;;;;;55.08;20.73;;;;;;;-5.96;100.00;98112.41;4225002;33;20555;-75
2022/12/14 11:23:19;;;;;;;54.08;19.95;;;;;;;-6.14;100.00;98114.44;4226762;33;20051;-76
2022/12/14 11:25:49;;;;;;;59.20;24.20;;;;;;;-5.93;100.00;98117.34;4250924;33;20061;-75
2022/12/14 11:28:35;;;;;;;63.13;27.30;;;;;;;-6.41;100.00;98067.47;4283296;33;20025;-75
2022/12/14 11:31:12;;;;;;;68.28;27.95;;;;;;;-6.34;100.00;98104.28;4269392;33;20420;-75
2022/12/14 11:33:46;;;;;;;46.65;18.45;;;;;;;-6.26;100.00;98106.91;4267257;33;20068;-74
2022/12/14 11:36:33;;;;;;;61.60;25.88;;;;;;;-6.58;100.00;98061.41;4268998;33;20038;-76
2022/12/14 11:39:05;;;;;;;33.67;16.08;;;;;;;-6.42;100.00;98096.44;4267188;33;20413;-76
2022/12/14 11:41:35;;;;;;;74.90;28.15;;;;;;;-6.77;100.00;98099.19;4267087;33;20444;-75
2022/12/14 11:44:21;;;;;;;52.70;21.17;;;;;;;-6.65;100.00;98097.09;4268953;33;20058;-76
2022/12/14 11:46:58;;;;;;;65.90;26.60;;;;;;;-6.47;100.00;98088.25;4247023;33;20039;-74
2022/12/14 11:49:39;;;;;;;43.47;18.45;;;;;;;-6.48;100.00;98086.63;4239859;33;20039;-76
2022/12/14 11:52:16;;;;;;;43.63;18.10;;;;;;;-6.61;100.00;98037.34;4240399;33;20081;-75
2022/12/14 11:55:09;;;;;;;44.45;18.45;;;;;;;-6.65;100.00;98034.25;4242862;33;20035;-78
2022/12/14 11:58:02;;;;;;;51.63;19.58;;;;;;;-6.17;100.00;98076.28;4211985;34;20032;-80
2022/12/14 12:00:54;;;;;;;61.85;22.50;;;;;;;-6.32;100.00;98036.81;4352578;28;20340;31
2022/12/14 12:03:34;;;;;;;53.55;19.65;;;;;;;-6.07;100.00;98063.00;4239654;33;20035;-80
2022/12/14 12:06:07;;;;;;;66.05;27.50;;;;;;;-5.90;100.00;98063.75;4257769;33;20064;-82
2022/12/14 12:08:37;;;;;;;58.17;22.58;;;;;;;-6.40;100.00;98068.28;4255577;33;20056;-82
2022/12/14 12:11:14;;;;;;;59.22;22.67;;;;;;;-6.43;100.00;98058.13;4255410;33;20034;-79
2022/12/14 12:13:52;;;;;;;63.95;28.98;;;;;;;-7.04;100.00;97977.31;4240194;33;20062;-81
2022/12/14 12:16:27;;;;;;;56.03;23.83;;;;;;;-6.41;100.00;98059.59;4240688;33;20086;-82
2022/12/14 12:19:15;;;;;;;50.63;20.08;;;;;;;-6.59;100.00;98019.66;4239761;33;20041;-83
2022/12/14 12:21:47;;;;;;;;;;;;;;;-7.32;100.00;97911.44;4224914;34;20055;-80
2022/12/14 12:24:51;;;;;;;48.87;18.87;;;;;;;-6.37;100.00;98052.22;4222437;34;20272;-80
2022/12/14 12:27:18;;;;;;;42.80;17.95;;;;;;;-6.41;100.00;98045.69;4152444;34;20037;-79
2022/12/14 12:29:49;;;;;;;61.83;21.85;;;;;;;-6.65;100.00;98042.13;4156750;34;20033;-80
2022/12/14 12:32:25;;;;;;;;;;;;;;;-6.61;100.00;98037.34;4163683;34;20036;-80
2022/12/14 12:35:22;;;;;;;48.55;21.92;;;;;;;-6.41;100.00;98029.97;4170251;34;20274;-79
2022/12/14 12:38:02;;;;;;;63.53;23.77;;;;;;;-6.33;100.00;98019.50;4168230;34;20116;-81
2022/12/14 12:40:51;;;;;;;55.75;19.37;;;;;;;-6.46;100.00;98020.00;4168525;34;20107;-79
2022/12/14 12:43:40;;;;;;;60.50;20.33;;;;;;;-6.28;100.00;98019.81;4165070;34;20077;-80
2022/12/14 12:49:16;;;;;;;47.10;21.23;;;;;;;-6.46;100.00;98006.91;4166428;34;20405;-78
2022/12/14 12:51:48;;;;;;;52.47;18.52;;;;;;;-6.10;100.00;98005.69;4165157;34;20068;-80
2022/12/14 12:54:30;;;;;;;50.05;20.12;;;;;;;-6.04;100.00;98000.56;4169936;34;20037;-80
2022/12/14 12:57:05;;;;;;;44.90;17.62;;;;;;;-5.97;100.00;97994.66;4170340;34;20064;-78
2022/12/14 12:59:48;;;;;;;50.47;17.20;;;;;;;-5.93;100.00;97994.13;4170700;34;20055;-81
2022/12/14 13:02:46;;;;;;;38.97;16.83;;;;;;;-5.84;100.00;97990.50;4170014;34;20104;-81
2022/12/14 13:05:17;;;;;;;35.40;12.83;;;;;;;-5.75;100.00;97982.56;4188296;34;20081;-81
2022/12/14 13:08:00;;;;;;;46.65;18.73;;;;;;;-5.36;100.00;97986.94;4200039;34;20127;-79
2022/12/14 13:10:34;;;;;;;39.75;18.23;;;;;;;-5.54;100.00;97968.88;4208337;34;20063;-79
2022/12/14 13:13:25;;;;;;;44.63;17.85;;;;;;;-5.82;100.00;97944.91;4207779;34;20373;-79
2022/12/14 13:16:02;;;;;;;51.78;18.42;;;;;;;-5.54;100.00;97977.53;4195151;34;20060;-78
2022/12/14 13:18:38;;;;;;;46.97;20.42;;;;;;;-5.29;100.00;97972.16;4198626;34;20044;-79
2022/12/14 13:21:33;;;;;;;45.67;18.52;;;;;;;-5.71;100.00;97955.00;4188604;34;20048;-81
2022/12/14 13:24:02;;;;;;;46.92;18.37;;;;;;;-5.45;100.00;97967.03;4236915;34;20126;-81
2022/12/14 13:26:49;;;;;;;53.90;18.00;;;;;;;-5.49;100.00;97941.13;4241552;34;20166;-81
2022/12/14 13:29:32;;;;;;;45.22;17.45;;;;;;;-5.46;100.00;97971.44;4222638;34;20126;-80
2022/12/14 13:32:06;;;;;;;40.58;17.20;;;;;;;-5.60;100.00;97954.66;4216231;34;20043;-80
2022/12/14 13:34:47;;;;;;;58.53;20.35;;;;;;;-5.61;100.00;97955.63;4207183;34;20061;-79
2022/12/14 13:37:25;;;;;;;44.90;17.70;;;;;;;-5.71;100.00;97947.97;4209263;34;20035;-79
2022/12/14 13:40:13;;;;;;;45.42;18.60;;;;;;;-5.93;100.00;97925.97;4196261;34;20066;-79
2022/12/14 13:42:49;;;;;;;53.22;19.58;;;;;;;-5.95;100.00;97938.44;4182403;34;20085;-80
2022/12/14 13:45:22;;;;;;;53.17;19.30;;;;;;;-5.85;100.00;97931.16;4167982;34;20053;-80
2022/12/14 13:47:52;;;;;;;41.72;14.77;;;;;;;-5.54;100.00;97922.44;4177062;34;20071;-80
2022/12/14 13:50:39;;;;;;;42.38;16.77;;;;;;;-5.86;100.00;97884.94;4147203;34;20057;-81
2022/12/14 13:53:23;;;;;;;46.47;18.80;;;;;;;-5.96;100.00;97884.38;4160743;34;20052;-82
2022/12/14 13:55:58;;;;;;;26.37;11.63;;;;;;;-5.96;100.00;97913.19;4166139;34;20052;-80
2022/12/14 13:58:37;;;;;;;48.47;17.08;;;;;;;-5.88;100.00;97894.78;4141899;34;20041;-80
2022/12/14 14:01:10;;;;;;;47.67;16.48;;;;;;;-5.74;100.00;97908.97;4140522;34;20052;-78